sensor_id;sensor_type;location;lat;lon;timestamp;pressure;altitude;pressure_sealevel;temperature;humidity
59110;BME280;44895;47.438;18.978;2023-12-14T00:01:49;98651.09;;;5.16;100.00
59110;BME280;44895;47.438;18.978;2023-12-14T00:04:53;98657.50;;;5.20;100.00
59110;BME280;44895;47.438;18.978;2023-12-14T00:07:57;98659.53;;;5.29;100.00
59110;BME280;44895;47.438;18.978;2023-12-14T00:11:08;98653.78;;;5.16;100.00
59110;BME280;44895;47.438;18.978;2023-12-14T00:14:13;98656.94;;;5.04;100.00
59110;BME280;44895;47.438;18.978;2023-12-14T00:17:16;98662.16;;;4.96;100.00
59110;BME280;44895;47.438;18.978;2023-12-14T00:20:20;98677.63;;;4.85;100.00
59110;BME280;44895;47.438;18.978;2023-12-14T00:23:24;98689.91;;;4.72;100.00
59110;BME280;44895;47.438;18.978;2023-12-14T00:26:28;98687.91;;;4.83;100.00
59110;BME280;44895;47.438;18.978;2023-12-14T00:29:32;98699.97;;;4.85;100.00
59110;BME280;44895;47.438;18.978;2023-12-14T00:32:36;98710.28;;;4.78;100.00
59110;BME280;44895;47.438;18.978;2023-12-14T00:35:40;98702.28;;;4.73;100.00
59110;BME280;44895;47.438;18.978;2023-12-14T00:38:44;98727.16;;;4.84;100.00
59110;BME280;44895;47.438;18.978;2023-12-14T00:41:48;98730.13;;;4.82;100.00
59110;BME280;44895;47.438;18.978;2023-12-14T00:44:52;98760.88;;;4.76;100.00
59110;BME280;44895;47.438;18.978;2023-12-14T00:47:56;98761.50;;;4.92;100.00
59110;BME280;44895;47.438;18.978;2023-12-14T00:51:00;98756.59;;;4.75;100.00
59110;BME280;44895;47.438;18.978;2023-12-14T00:54:04;98767.88;;;4.53;100.00
59110;BME280;44895;47.438;18.978;2023-12-14T00:57:08;98775.03;;;4.63;100.00
59110;BME280;44895;47.438;18.978;2023-12-14T01:00:12;98780.53;;;4.77;100.00
59110;BME280;44895;47.438;18.978;2023-12-14T01:03:17;98783.75;;;4.73;100.00
59110;BME280;44895;47.438;18.978;2023-12-14T01:06:21;98786.56;;;4.63;100.00
59110;BME280;44895;47.438;18.978;2023-12-14T01:09:25;98766.44;;;4.61;100.00
59110;BME280;44895;47.438;18.978;2023-12-14T01:12:29;98752.94;;;4.66;100.00
59110;BME280;44895;47.438;18.978;2023-12-14T01:15:33;98758.00;;;4.67;100.00
59110;BME280;44895;47.438;18.978;2023-12-14T01:18:37;98743.47;;;4.68;100.00
59110;BME280;44895;47.438;18.978;2023-12-14T01:21:41;98739.09;;;4.78;100.00
59110;BME280;44895;47.438;18.978;2023-12-14T01:24:45;98737.81;;;4.70;100.00
59110;BME280;44895;47.438;18.978;2023-12-14T01:27:49;98727.63;;;4.67;100.00
59110;BME280;44895;47.438;18.978;2023-12-14T01:30:53;98722.78;;;4.69;100.00
59110;BME280;44895;47.438;18.978;2023-12-14T01:33:56;98735.28;;;4.79;100.00
59110;BME280;44895;47.438;18.978;2023-12-14T01:37:00;98738.63;;;4.70;100.00
59110;BME280;44895;47.438;18.978;2023-12-14T01:40:05;98709.34;;;4.69;100.00
59110;BME280;44895;47.438;18.978;2023-12-14T01:43:10;98716.06;;;4.90;100.00
59110;BME280;44895;47.438;18.978;2023-12-14T01:46:14;98713.38;;;4.90;100.00
59110;BME280;44895;47.438;18.978;2023-12-14T01:49:20;98717.00;;;5.00;100.00
59110;BME280;44895;47.438;18.978;2023-12-14T01:52:24;98719.75;;;4.95;100.00
59110;BME280;44895;47.438;18.978;2023-12-14T01:55:28;98729.53;;;5.10;100.00
59110;BME280;44895;47.438;18.978;2023-12-14T01:58:33;98728.06;;;4.98;100.00
59110;BME280;44895;47.438;18.978;2023-12-14T02:01:42;98761.28;;;5.07;100.00
59110;BME280;44895;47.438;18.978;2023-12-14T02:04:47;98762.84;;;5.14;100.00
59110;BME280;44895;47.438;18.978;2023-12-14T02:07:51;98751.56;;;5.12;100.00
59110;BME280;44895;47.438;18.978;2023-12-14T02:10:55;98758.84;;;5.11;100.00
59110;BME280;44895;47.438;18.978;2023-12-14T02:14:06;98745.53;;;5.20;100.00
59110;BME280;44895;47.438;18.978;2023-12-14T02:17:11;98737.31;;;5.11;100.00
59110;BME280;44895;47.438;18.978;2023-12-14T02:20:14;98731.63;;;5.13;100.00
59110;BME280;44895;47.438;18.978;2023-12-14T02:23:18;98734.75;;;5.01;100.00
59110;BME280;44895;47.438;18.978;2023-12-14T02:26:22;98731.53;;;4.99;100.00
59110;BME280;44895;47.438;18.978;2023-12-14T02:29:26;98730.59;;;4.89;100.00
59110;BME280;44895;47.438;18.978;2023-12-14T02:32:30;98760.06;;;5.00;100.00
59110;BME280;44895;47.438;18.978;2023-12-14T02:35:34;98764.00;;;5.07;100.00
59110;BME280;44895;47.438;18.978;2023-12-14T02:38:38;98768.28;;;5.09;100.00
59110;BME280;44895;47.438;18.978;2023-12-14T02:41:41;98765.53;;;5.14;100.00
59110;BME280;44895;47.438;18.978;2023-12-14T02:44:46;98764.75;;;5.13;100.00
59110;BME280;44895;47.438;18.978;2023-12-14T02:47:50;98760.75;;;5.11;100.00
59110;BME280;44895;47.438;18.978;2023-12-14T02:50:59;98752.72;;;5.05;100.00
59110;BME280;44895;47.438;18.978;2023-12-14T02:54:06;98730.91;;;5.07;100.00
59110;BME280;44895;47.438;18.978;2023-12-14T02:57:10;98736.69;;;4.95;100.00
59110;BME280;44895;47.438;18.978;2023-12-14T03:00:14;98727.41;;;5.06;100.00
59110;BME280;44895;47.438;18.978;2023-12-14T03:03:18;98728.22;;;5.07;100.00
59110;BME280;44895;47.438;18.978;2023-12-14T03:06:22;98738.75;;;5.03;100.00
59110;BME280;44895;47.438;18.978;2023-12-14T03:09:26;98718.44;;;4.92;100.00
59110;BME280;44895;47.438;18.978;2023-12-14T03:12:30;98739.69;;;4.94;100.00
59110;BME280;44895;47.438;18.978;2023-12-14T03:15:34;98729.72;;;4.94;100.00
59110;BME280;44895;47.438;18.978;2023-12-14T03:18:38;98741.81;;;4.97;100.00
59110;BME280;44895;47.438;18.978;2023-12-14T03:21:23;98765.38;;;5.05;100.00
59110;BME280;44895;47.438;18.978;2023-12-14T03:24:27;98787.91;;;5.09;100.00
59110;BME280;44895;47.438;18.978;2023-12-14T03:27:31;98806.56;;;5.05;100.00
59110;BME280;44895;47.438;18.978;2023-12-14T03:30:34;98809.50;;;5.04;100.00
59110;BME280;44895;47.438;18.978;2023-12-14T03:33:38;98810.28;;;5.10;100.00
59110;BME280;44895;47.438;18.978;2023-12-14T03:36:42;98811.88;;;5.11;100.00
59110;BME280;44895;47.438;18.978;2023-12-14T03:39:46;98825.66;;;5.04;100.00
59110;BME280;44895;47.438;18.978;2023-12-14T03:42:50;98838.72;;;5.16;100.00
59110;BME280;44895;47.438;18.978;2023-12-14T03:45:54;98833.91;;;5.13;100.00
59110;BME280;44895;47.438;18.978;2023-12-14T03:48:58;98844.97;;;5.11;100.00
59110;BME280;44895;47.438;18.978;2023-12-14T03:52:02;98841.41;;;5.16;100.00
59110;BME280;44895;47.438;18.978;2023-12-14T03:55:07;98850.56;;;5.15;100.00
59110;BME280;44895;47.438;18.978;2023-12-14T03:58:11;98847.19;;;5.28;100.00
59110;BME280;44895;47.438;18.978;2023-12-14T04:01:19;98853.94;;;5.26;100.00
59110;BME280;44895;47.438;18.978;2023-12-14T04:04:24;98850.22;;;5.21;100.00
59110;BME280;44895;47.438;18.978;2023-12-14T04:07:28;98851.31;;;5.20;100.00
59110;BME280;44895;47.438;18.978;2023-12-14T04:10:32;98858.72;;;5.10;100.00
59110;BME280;44895;47.438;18.978;2023-12-14T04:13:38;98863.34;;;5.04;100.00
59110;BME280;44895;47.438;18.978;2023-12-14T04:16:42;98869.13;;;5.16;100.00
59110;BME280;44895;47.438;18.978;2023-12-14T04:19:46;98862.56;;;5.03;100.00
59110;BME280;44895;47.438;18.978;2023-12-14T04:22:50;98867.69;;;5.00;100.00
59110;BME280;44895;47.438;18.978;2023-12-14T04:25:54;98868.94;;;5.07;100.00
59110;BME280;44895;47.438;18.978;2023-12-14T04:28:58;98869.47;;;5.10;100.00
59110;BME280;44895;47.438;18.978;2023-12-14T04:32:02;98871.94;;;5.06;100.00
59110;BME280;44895;47.438;18.978;2023-12-14T04:35:06;98866.84;;;5.04;100.00
59110;BME280;44895;47.438;18.978;2023-12-14T04:38:10;98867.56;;;5.10;100.00
59110;BME280;44895;47.438;18.978;2023-12-14T04:41:14;98878.75;;;5.22;100.00
59110;BME280;44895;47.438;18.978;2023-12-14T04:44:21;98864.94;;;5.05;100.00
59110;BME280;44895;47.438;18.978;2023-12-14T04:47:25;98867.56;;;5.10;100.00
59110;BME280;44895;47.438;18.978;2023-12-14T04:50:29;98881.09;;;5.05;100.00
59110;BME280;44895;47.438;18.978;2023-12-14T04:53:33;98884.81;;;5.09;100.00
59110;BME280;44895;47.438;18.978;2023-12-14T04:56:37;98882.22;;;4.99;100.00
59110;BME280;44895;47.438;18.978;2023-12-14T04:59:41;98877.56;;;5.10;100.00
59110;BME280;44895;47.438;18.978;2023-12-14T05:02:46;98891.00;;;5.10;100.00
59110;BME280;44895;47.438;18.978;2023-12-14T05:05:52;98871.88;;;4.87;100.00
59110;BME280;44895;47.438;18.978;2023-12-14T05:08:56;98892.31;;;5.12;100.00
59110;BME280;44895;47.438;18.978;2023-12-14T05:12:01;98892.69;;;5.05;100.00
59110;BME280;44895;47.438;18.978;2023-12-14T05:15:05;98899.88;;;5.10;100.00
59110;BME280;44895;47.438;18.978;2023-12-14T05:18:10;98898.75;;;5.16;100.00
59110;BME280;44895;47.438;18.978;2023-12-14T05:21:17;98915.00;;;5.30;100.00
59110;BME280;44895;47.438;18.978;2023-12-14T05:24:21;98912.03;;;5.32;100.00
59110;BME280;44895;47.438;18.978;2023-12-14T05:27:25;98927.69;;;5.30;100.00
59110;BME280;44895;47.438;18.978;2023-12-14T05:30:29;98935.09;;;5.38;100.00
59110;BME280;44895;47.438;18.978;2023-12-14T05:33:37;98934.66;;;5.31;100.00
59110;BME280;44895;47.438;18.978;2023-12-14T05:36:42;98950.06;;;5.25;100.00
59110;BME280;44895;47.438;18.978;2023-12-14T05:39:46;98958.03;;;5.35;100.00
59110;BME280;44895;47.438;18.978;2023-12-14T05:42:50;98960.22;;;5.33;100.00
59110;BME280;44895;47.438;18.978;2023-12-14T05:45:54;98960.34;;;5.47;100.00
59110;BME280;44895;47.438;18.978;2023-12-14T05:48:58;98966.81;;;5.46;100.00
59110;BME280;44895;47.438;18.978;2023-12-14T05:52:02;98975.31;;;5.53;100.00
59110;BME280;44895;47.438;18.978;2023-12-14T05:55:09;98975.50;;;5.38;100.00
59110;BME280;44895;47.438;18.978;2023-12-14T05:58:16;98978.31;;;5.52;100.00
59110;BME280;44895;47.438;18.978;2023-12-14T06:01:20;98986.69;;;5.50;100.00
59110;BME280;44895;47.438;18.978;2023-12-14T06:04:25;98996.75;;;5.39;100.00
59110;BME280;44895;47.438;18.978;2023-12-14T06:07:30;98998.84;;;5.48;100.00
59110;BME280;44895;47.438;18.978;2023-12-14T06:10:33;99001.19;;;5.54;100.00
59110;BME280;44895;47.438;18.978;2023-12-14T06:13:38;99008.53;;;5.49;100.00
59110;BME280;44895;47.438;18.978;2023-12-14T06:16:42;99010.00;;;5.60;100.00
59110;BME280;44895;47.438;18.978;2023-12-14T06:19:46;99001.47;;;5.53;100.00
59110;BME280;44895;47.438;18.978;2023-12-14T06:22:50;99011.34;;;5.63;100.00
59110;BME280;44895;47.438;18.978;2023-12-14T06:25:54;99013.69;;;5.69;100.00
59110;BME280;44895;47.438;18.978;2023-12-14T06:28:58;99010.41;;;5.48;100.00
59110;BME280;44895;47.438;18.978;2023-12-14T06:32:02;99016.75;;;5.33;100.00
59110;BME280;44895;47.438;18.978;2023-12-14T06:35:06;99014.47;;;5.46;100.00
59110;BME280;44895;47.438;18.978;2023-12-14T06:38:10;99016.41;;;5.40;100.00
59110;BME280;44895;47.438;18.978;2023-12-14T06:41:20;99019.13;;;5.40;100.00
59110;BME280;44895;47.438;18.978;2023-12-14T06:44:24;99028.47;;;5.48;100.00
59110;BME280;44895;47.438;18.978;2023-12-14T06:47:30;99032.03;;;5.38;100.00
59110;BME280;44895;47.438;18.978;2023-12-14T06:50:34;99042.91;;;5.28;100.00
59110;BME280;44895;47.438;18.978;2023-12-14T06:53:40;99044.53;;;5.29;100.00
59110;BME280;44895;47.438;18.978;2023-12-14T06:56:44;99040.13;;;5.38;100.00
59110;BME280;44895;47.438;18.978;2023-12-14T06:59:49;99054.16;;;5.35;100.00
59110;BME280;44895;47.438;18.978;2023-12-14T07:02:52;99050.25;;;5.22;100.00
59110;BME280;44895;47.438;18.978;2023-12-14T07:05:57;99051.81;;;5.28;100.00
59110;BME280;44895;47.438;18.978;2023-12-14T07:09:01;99043.91;;;5.07;100.00
59110;BME280;44895;47.438;18.978;2023-12-14T07:12:05;99073.34;;;5.28;100.00
59110;BME280;44895;47.438;18.978;2023-12-14T07:15:09;99081.16;;;5.30;100.00
59110;BME280;44895;47.438;18.978;2023-12-14T07:18:13;99085.16;;;5.32;100.00
59110;BME280;44895;47.438;18.978;2023-12-14T07:21:17;99090.31;;;5.29;100.00
59110;BME280;44895;47.438;18.978;2023-12-14T07:24:20;99096.28;;;5.20;100.00
59110;BME280;44895;47.438;18.978;2023-12-14T07:27:24;99097.53;;;5.33;100.00
59110;BME280;44895;47.438;18.978;2023-12-14T07:30:28;99107.75;;;5.36;100.00
59110;BME280;44895;47.438;18.978;2023-12-14T07:33:32;99112.47;;;5.15;100.00
59110;BME280;44895;47.438;18.978;2023-12-14T07:36:36;99108.63;;;5.27;100.00
59110;BME280;44895;47.438;18.978;2023-12-14T07:39:41;99113.91;;;5.37;100.00
59110;BME280;44895;47.438;18.978;2023-12-14T07:42:45;99122.53;;;5.39;100.00
59110;BME280;44895;47.438;18.978;2023-12-14T07:45:49;99113.69;;;5.33;100.00
59110;BME280;44895;47.438;18.978;2023-12-14T07:48:53;99121.00;;;5.28;100.00
59110;BME280;44895;47.438;18.978;2023-12-14T07:51:57;99129.81;;;5.38;100.00
59110;BME280;44895;47.438;18.978;2023-12-14T07:55:01;99127.06;;;5.44;100.00
59110;BME280;44895;47.438;18.978;2023-12-14T07:58:06;99137.28;;;5.47;100.00
59110;BME280;44895;47.438;18.978;2023-12-14T08:01:10;99129.66;;;5.54;100.00
59110;BME280;44895;47.438;18.978;2023-12-14T08:04:14;99132.69;;;5.47;100.00
59110;BME280;44895;47.438;18.978;2023-12-14T08:07:18;99131.13;;;5.41;100.00
59110;BME280;44895;47.438;18.978;2023-12-14T08:10:22;99142.69;;;5.42;100.00
59110;BME280;44895;47.438;18.978;2023-12-14T08:13:26;99155.31;;;5.46;100.00
59110;BME280;44895;47.438;18.978;2023-12-14T08:16:30;99158.56;;;5.43;100.00
59110;BME280;44895;47.438;18.978;2023-12-14T08:19:34;99162.19;;;5.63;100.00
59110;BME280;44895;47.438;18.978;2023-12-14T08:22:38;99166.50;;;5.64;100.00
59110;BME280;44895;47.438;18.978;2023-12-14T08:25:48;99176.16;;;5.65;100.00
59110;BME280;44895;47.438;18.978;2023-12-14T08:28:52;99170.66;;;5.80;100.00
59110;BME280;44895;47.438;18.978;2023-12-14T08:31:56;99180.97;;;5.73;100.00
59110;BME280;44895;47.438;18.978;2023-12-14T08:35:01;99182.63;;;5.69;100.00
59110;BME280;44895;47.438;18.978;2023-12-14T08:38:05;99188.41;;;5.81;100.00
59110;BME280;44895;47.438;18.978;2023-12-14T08:41:12;99187.91;;;5.79;100.00
59110;BME280;44895;47.438;18.978;2023-12-14T08:44:17;99180.38;;;5.76;100.00
59110;BME280;44895;47.438;18.978;2023-12-14T08:47:21;99191.34;;;5.85;100.00
59110;BME280;44895;47.438;18.978;2023-12-14T08:50:24;99197.09;;;6.08;100.00
59110;BME280;44895;47.438;18.978;2023-12-14T08:53:30;99193.50;;;6.17;100.00
59110;BME280;44895;47.438;18.978;2023-12-14T08:56:34;99195.06;;;6.24;100.00
59110;BME280;44895;47.438;18.978;2023-12-14T08:59:38;99203.25;;;6.13;100.00
59110;BME280;44895;47.438;18.978;2023-12-14T09:02:42;99214.72;;;6.24;100.00
59110;BME280;44895;47.438;18.978;2023-12-14T09:05:47;99212.13;;;6.14;100.00
59110;BME280;44895;47.438;18.978;2023-12-14T09:08:51;99219.28;;;6.29;100.00
59110;BME280;44895;47.438;18.978;2023-12-14T09:11:55;99230.78;;;6.34;100.00
59110;BME280;44895;47.438;18.978;2023-12-14T09:14:59;99216.88;;;6.51;100.00
59110;BME280;44895;47.438;18.978;2023-12-14T09:18:03;99223.94;;;6.47;100.00
59110;BME280;44895;47.438;18.978;2023-12-14T09:21:07;99223.88;;;6.52;100.00
59110;BME280;44895;47.438;18.978;2023-12-14T09:24:11;99223.16;;;6.42;100.00
59110;BME280;44895;47.438;18.978;2023-12-14T09:27:15;99229.81;;;6.49;100.00
59110;BME280;44895;47.438;18.978;2023-12-14T09:30:19;99233.00;;;6.32;100.00
59110;BME280;44895;47.438;18.978;2023-12-14T09:33:24;99235.22;;;6.49;100.00
59110;BME280;44895;47.438;18.978;2023-12-14T09:36:27;99225.56;;;6.43;100.00
59110;BME280;44895;47.438;18.978;2023-12-14T09:39:31;99236.22;;;6.59;100.00
59110;BME280;44895;47.438;18.978;2023-12-14T09:42:37;99228.56;;;6.66;100.00
59110;BME280;44895;47.438;18.978;2023-12-14T09:45:43;99238.25;;;6.67;100.00
59110;BME280;44895;47.438;18.978;2023-12-14T09:48:50;99236.91;;;6.45;100.00
59110;BME280;44895;47.438;18.978;2023-12-14T09:51:57;99236.72;;;6.61;100.00
59110;BME280;44895;47.438;18.978;2023-12-14T09:55:01;99238.56;;;6.65;100.00
59110;BME280;44895;47.438;18.978;2023-12-14T09:58:07;99241.63;;;6.59;100.00
59110;BME280;44895;47.438;18.978;2023-12-14T10:01:24;99253.13;;;6.64;100.00
59110;BME280;44895;47.438;18.978;2023-12-14T10:04:32;99253.84;;;6.75;100.00
59110;BME280;44895;47.438;18.978;2023-12-14T10:07:42;99256.56;;;6.70;100.00
59110;BME280;44895;47.438;18.978;2023-12-14T10:10:51;99266.00;;;6.97;100.00
59110;BME280;44895;47.438;18.978;2023-12-14T10:13:56;99263.16;;;7.07;100.00
59110;BME280;44895;47.438;18.978;2023-12-14T10:17:19;99267.66;;;7.12;100.00
59110;BME280;44895;47.438;18.978;2023-12-14T10:20:23;99270.16;;;7.08;100.00
59110;BME280;44895;47.438;18.978;2023-12-14T10:23:28;99271.03;;;7.23;100.00
59110;BME280;44895;47.438;18.978;2023-12-14T10:26:33;99275.06;;;7.25;100.00
59110;BME280;44895;47.438;18.978;2023-12-14T10:29:38;99277.69;;;7.49;100.00
59110;BME280;44895;47.438;18.978;2023-12-14T10:32:42;99279.91;;;7.28;100.00
59110;BME280;44895;47.438;18.978;2023-12-14T10:35:47;99286.56;;;7.12;100.00
59110;BME280;44895;47.438;18.978;2023-12-14T10:38:57;99279.00;;;7.33;100.00
59110;BME280;44895;47.438;18.978;2023-12-14T10:42:05;99288.78;;;7.29;100.00
59110;BME280;44895;47.438;18.978;2023-12-14T10:45:13;99288.34;;;7.41;100.00
59110;BME280;44895;47.438;18.978;2023-12-14T10:48:20;99295.81;;;7.30;100.00
59110;BME280;44895;47.438;18.978;2023-12-14T10:51:25;99299.09;;;7.46;100.00
59110;BME280;44895;47.438;18.978;2023-12-14T10:54:32;99299.66;;;7.24;100.00
59110;BME280;44895;47.438;18.978;2023-12-14T10:57:38;99297.78;;;7.43;100.00
59110;BME280;44895;47.438;18.978;2023-12-14T11:00:43;99301.28;;;7.44;100.00
59110;BME280;44895;47.438;18.978;2023-12-14T11:03:48;99306.94;;;7.47;100.00
59110;BME280;44895;47.438;18.978;2023-12-14T11:06:54;99307.63;;;7.53;100.00
59110;BME280;44895;47.438;18.978;2023-12-14T11:09:59;99309.66;;;7.42;100.00
59110;BME280;44895;47.438;18.978;2023-12-14T11:13:07;99318.97;;;7.55;100.00
59110;BME280;44895;47.438;18.978;2023-12-14T11:16:15;99313.84;;;7.54;100.00
59110;BME280;44895;47.438;18.978;2023-12-14T11:19:29;99297.28;;;7.41;100.00
59110;BME280;44895;47.438;18.978;2023-12-14T11:22:34;99315.06;;;7.42;100.00
59110;BME280;44895;47.438;18.978;2023-12-14T11:25:39;99313.03;;;7.34;100.00
59110;BME280;44895;47.438;18.978;2023-12-14T11:28:43;99316.91;;;7.47;100.00
59110;BME280;44895;47.438;18.978;2023-12-14T11:31:47;99299.47;;;7.39;100.00
59110;BME280;44895;47.438;18.978;2023-12-14T11:34:51;99330.09;;;7.29;100.00
59110;BME280;44895;47.438;18.978;2023-12-14T11:37:56;99325.53;;;7.49;100.00
59110;BME280;44895;47.438;18.978;2023-12-14T11:41:03;99326.63;;;7.67;100.00
59110;BME280;44895;47.438;18.978;2023-12-14T11:44:07;99320.50;;;7.80;100.00
59110;BME280;44895;47.438;18.978;2023-12-14T11:47:10;99329.03;;;7.88;100.00
59110;BME280;44895;47.438;18.978;2023-12-14T11:50:15;99320.34;;;7.72;100.00
59110;BME280;44895;47.438;18.978;2023-12-14T11:53:20;99330.66;;;7.70;100.00
59110;BME280;44895;47.438;18.978;2023-12-14T11:56:24;99336.50;;;7.77;100.00
59110;BME280;44895;47.438;18.978;2023-12-14T11:59:31;99338.19;;;7.92;100.00
59110;BME280;44895;47.438;18.978;2023-12-14T12:02:35;99335.47;;;7.92;100.00
59110;BME280;44895;47.438;18.978;2023-12-14T12:05:41;99346.63;;;7.85;100.00
59110;BME280;44895;47.438;18.978;2023-12-14T12:08:45;99348.09;;;7.96;100.00
59110;BME280;44895;47.438;18.978;2023-12-14T12:11:49;99354.19;;;7.88;100.00
59110;BME280;44895;47.438;18.978;2023-12-14T12:14:53;99354.22;;;8.21;100.00
59110;BME280;44895;47.438;18.978;2023-12-14T12:17:58;99358.09;;;8.15;100.00
59110;BME280;44895;47.438;18.978;2023-12-14T12:21:02;99363.63;;;8.24;100.00
59110;BME280;44895;47.438;18.978;2023-12-14T12:24:08;99367.53;;;8.18;100.00
59110;BME280;44895;47.438;18.978;2023-12-14T12:27:12;99373.72;;;8.18;100.00
59110;BME280;44895;47.438;18.978;2023-12-14T12:30:16;99374.91;;;8.12;100.00
59110;BME280;44895;47.438;18.978;2023-12-14T12:33:21;99393.03;;;8.11;100.00
59110;BME280;44895;47.438;18.978;2023-12-14T12:36:25;99399.78;;;7.95;100.00
59110;BME280;44895;47.438;18.978;2023-12-14T12:39:28;99391.28;;;8.02;100.00
59110;BME280;44895;47.438;18.978;2023-12-14T12:42:33;99390.94;;;7.89;100.00
59110;BME280;44895;47.438;18.978;2023-12-14T12:45:37;99402.09;;;8.02;100.00
59110;BME280;44895;47.438;18.978;2023-12-14T12:48:41;99401.50;;;8.76;100.00
59110;BME280;44895;47.438;18.978;2023-12-14T12:51:45;99405.03;;;9.60;100.00
59110;BME280;44895;47.438;18.978;2023-12-14T12:54:49;99400.13;;;9.06;100.00
59110;BME280;44895;47.438;18.978;2023-12-14T12:57:53;99408.25;;;9.48;100.00
59110;BME280;44895;47.438;18.978;2023-12-14T13:00:58;99417.66;;;8.95;100.00
59110;BME280;44895;47.438;18.978;2023-12-14T13:04:02;99425.72;;;9.28;100.00
59110;BME280;44895;47.438;18.978;2023-12-14T13:07:08;99428.13;;;9.29;100.00
59110;BME280;44895;47.438;18.978;2023-12-14T13:10:12;99437.66;;;10.87;100.00
59110;BME280;44895;47.438;18.978;2023-12-14T13:13:17;99439.13;;;9.89;100.00
59110;BME280;44895;47.438;18.978;2023-12-14T13:16:21;99441.38;;;8.70;100.00
59110;BME280;44895;47.438;18.978;2023-12-14T13:19:26;99442.81;;;8.10;100.00
59110;BME280;44895;47.438;18.978;2023-12-14T13:22:31;99447.41;;;7.91;100.00
59110;BME280;44895;47.438;18.978;2023-12-14T13:25:35;99460.84;;;7.77;100.00
59110;BME280;44895;47.438;18.978;2023-12-14T13:28:39;99455.44;;;7.77;100.00
59110;BME280;44895;47.438;18.978;2023-12-14T13:31:43;99467.13;;;7.72;100.00
59110;BME280;44895;47.438;18.978;2023-12-14T13:34:47;99477.19;;;7.66;100.00
59110;BME280;44895;47.438;18.978;2023-12-14T13:37:51;99477.72;;;7.44;100.00
59110;BME280;44895;47.438;18.978;2023-12-14T13:40:55;99482.81;;;7.46;100.00
59110;BME280;44895;47.438;18.978;2023-12-14T13:43:59;99477.66;;;7.49;100.00
59110;BME280;44895;47.438;18.978;2023-12-14T13:47:04;99491.56;;;7.38;100.00
59110;BME280;44895;47.438;18.978;2023-12-14T13:50:08;99499.63;;;7.43;100.00
59110;BME280;44895;47.438;18.978;2023-12-14T13:53:12;99489.59;;;7.43;100.00
59110;BME280;44895;47.438;18.978;2023-12-14T13:56:16;99491.44;;;7.24;100.00
59110;BME280;44895;47.438;18.978;2023-12-14T13:59:20;99502.25;;;7.48;100.00
59110;BME280;44895;47.438;18.978;2023-12-14T14:02:25;99512.28;;;7.18;100.00
59110;BME280;44895;47.438;18.978;2023-12-14T14:05:32;99522.19;;;7.28;100.00
59110;BME280;44895;47.438;18.978;2023-12-14T14:08:36;99530.19;;;7.38;100.00
59110;BME280;44895;47.438;18.978;2023-12-14T14:11:40;99535.59;;;7.38;100.00
59110;BME280;44895;47.438;18.978;2023-12-14T14:14:49;99530.81;;;7.30;100.00
59110;BME280;44895;47.438;18.978;2023-12-14T14:17:53;99542.91;;;7.38;100.00
59110;BME280;44895;47.438;18.978;2023-12-14T14:20:58;99540.84;;;7.24;100.00
59110;BME280;44895;47.438;18.978;2023-12-14T14:24:03;99553.03;;;7.22;100.00
59110;BME280;44895;47.438;18.978;2023-12-14T14:27:07;99543.31;;;7.21;100.00
59110;BME280;44895;47.438;18.978;2023-12-14T14:30:11;99562.69;;;7.28;100.00
59110;BME280;44895;47.438;18.978;2023-12-14T14:33:15;99560.88;;;7.18;100.00
59110;BME280;44895;47.438;18.978;2023-12-14T14:36:22;99552.38;;;7.06;100.00
59110;BME280;44895;47.438;18.978;2023-12-14T14:39:26;99568.84;;;7.04;100.00
59110;BME280;44895;47.438;18.978;2023-12-14T14:42:30;99572.69;;;6.93;100.00
59110;BME280;44895;47.438;18.978;2023-12-14T14:45:35;99583.41;;;7.08;100.00
59110;BME280;44895;47.438;18.978;2023-12-14T14:48:41;99579.13;;;7.02;100.00
59110;BME280;44895;47.438;18.978;2023-12-14T14:51:45;99585.16;;;6.89;100.00
59110;BME280;44895;47.438;18.978;2023-12-14T14:54:49;99565.28;;;6.74;100.00
59110;BME280;44895;47.438;18.978;2023-12-14T14:57:53;99597.31;;;6.86;100.00
59110;BME280;44895;47.438;18.978;2023-12-14T15:00:57;99598.22;;;6.71;100.00
59110;BME280;44895;47.438;18.978;2023-12-14T15:04:01;99604.63;;;6.85;100.00
59110;BME280;44895;47.438;18.978;2023-12-14T15:07:05;99617.72;;;6.63;100.00
59110;BME280;44895;47.438;18.978;2023-12-14T15:10:09;99617.91;;;6.77;100.00
59110;BME280;44895;47.438;18.978;2023-12-14T15:13:13;99616.88;;;6.73;100.00
59110;BME280;44895;47.438;18.978;2023-12-14T15:16:18;99626.63;;;6.58;100.00
59110;BME280;44895;47.438;18.978;2023-12-14T15:19:23;99629.69;;;6.46;100.00
59110;BME280;44895;47.438;18.978;2023-12-14T15:22:27;99633.16;;;6.52;100.00
59110;BME280;44895;47.438;18.978;2023-12-14T15:25:31;99644.72;;;6.63;100.00
59110;BME280;44895;47.438;18.978;2023-12-14T15:28:37;99656.88;;;6.55;100.00
59110;BME280;44895;47.438;18.978;2023-12-14T15:31:41;99664.69;;;6.57;100.00
59110;BME280;44895;47.438;18.978;2023-12-14T15:34:45;99660.31;;;6.66;100.00
59110;BME280;44895;47.438;18.978;2023-12-14T15:37:49;99664.63;;;6.72;100.00
59110;BME280;44895;47.438;18.978;2023-12-14T15:40:54;99679.19;;;6.71;100.00
59110;BME280;44895;47.438;18.978;2023-12-14T15:43:58;99688.97;;;6.62;100.00
59110;BME280;44895;47.438;18.978;2023-12-14T15:47:02;99693.22;;;6.73;100.00
59110;BME280;44895;47.438;18.978;2023-12-14T15:50:07;99695.13;;;6.67;100.00
59110;BME280;44895;47.438;18.978;2023-12-14T15:53:12;99687.56;;;6.69;100.00
59110;BME280;44895;47.438;18.978;2023-12-14T15:56:16;99698.94;;;6.66;100.00
59110;BME280;44895;47.438;18.978;2023-12-14T15:59:20;99695.94;;;6.73;100.00
59110;BME280;44895;47.438;18.978;2023-12-14T16:02:23;99691.63;;;6.67;100.00
59110;BME280;44895;47.438;18.978;2023-12-14T16:05:27;99702.19;;;6.58;100.00